sensor_id;sensor_type;location;lat;lon;timestamp;temperature;humidity
439;DHT22;206;48.782;9.252;2023-07-02T00:01:46;20.60;53.40
439;DHT22;206;48.782;9.252;2023-07-02T00:04:13;20.60;53.90
439;DHT22;206;48.782;9.252;2023-07-02T00:06:42;20.60;55.60
439;DHT22;206;48.782;9.252;2023-07-02T00:09:08;20.60;54.30
439;DHT22;206;48.782;9.252;2023-07-02T00:11:35;20.60;54.20
439;DHT22;206;48.782;9.252;2023-07-02T00:14:01;20.60;54.20
439;DHT22;206;48.782;9.252;2023-07-02T00:16:26;20.60;54.00
439;DHT22;206;48.782;9.252;2023-07-02T00:18:52;20.60;55.40
439;DHT22;206;48.782;9.252;2023-07-02T00:21:21;20.50;54.30
439;DHT22;206;48.782;9.252;2023-07-02T00:23:47;20.50;55.00
439;DHT22;206;48.782;9.252;2023-07-02T00:26:13;20.50;56.00
439;DHT22;206;48.782;9.252;2023-07-02T00:28:39;20.50;55.10
439;DHT22;206;48.782;9.252;2023-07-02T00:31:04;20.40;56.60
439;DHT22;206;48.782;9.252;2023-07-02T00:33:31;20.40;56.00
439;DHT22;206;48.782;9.252;2023-07-02T00:35:57;20.30;57.60
439;DHT22;206;48.782;9.252;2023-07-02T00:38:23;20.20;57.60
439;DHT22;206;48.782;9.252;2023-07-02T00:40:49;20.10;59.60
439;DHT22;206;48.782;9.252;2023-07-02T00:43:14;20.20;59.70
439;DHT22;206;48.782;9.252;2023-07-02T00:45:40;20.20;58.40
439;DHT22;206;48.782;9.252;2023-07-02T00:48:06;20.20;58.90
439;DHT22;206;48.782;9.252;2023-07-02T00:50:32;20.10;60.20
439;DHT22;206;48.782;9.252;2023-07-02T00:52:58;20.00;61.50
439;DHT22;206;48.782;9.252;2023-07-02T00:55:23;20.20;59.80
439;DHT22;206;48.782;9.252;2023-07-02T00:57:49;20.20;59.70
439;DHT22;206;48.782;9.252;2023-07-02T01:00:16;20.10;55.60
439;DHT22;206;48.782;9.252;2023-07-02T01:02:41;20.00;58.80
439;DHT22;206;48.782;9.252;2023-07-02T01:05:14;20.10;58.70
439;DHT22;206;48.782;9.252;2023-07-02T01:07:40;20.10;60.00
439;DHT22;206;48.782;9.252;2023-07-02T01:10:06;20.10;59.30
439;DHT22;206;48.782;9.252;2023-07-02T01:12:32;20.20;59.70
439;DHT22;206;48.782;9.252;2023-07-02T01:15:01;20.20;59.80
439;DHT22;206;48.782;9.252;2023-07-02T01:17:29;20.20;58.40
439;DHT22;206;48.782;9.252;2023-07-02T01:20:03;20.20;58.30
439;DHT22;206;48.782;9.252;2023-07-02T01:22:31;20.20;57.60
439;DHT22;206;48.782;9.252;2023-07-02T01:24:57;20.30;56.00
439;DHT22;206;48.782;9.252;2023-07-02T01:27:23;20.30;55.50
439;DHT22;206;48.782;9.252;2023-07-02T01:29:52;20.30;56.60
439;DHT22;206;48.782;9.252;2023-07-02T01:32:18;20.40;57.50
439;DHT22;206;48.782;9.252;2023-07-02T01:34:44;20.30;56.60
439;DHT22;206;48.782;9.252;2023-07-02T01:37:13;20.40;55.20
439;DHT22;206;48.782;9.252;2023-07-02T01:39:39;20.40;53.70
439;DHT22;206;48.782;9.252;2023-07-02T01:42:13;20.40;51.80
439;DHT22;206;48.782;9.252;2023-07-02T01:44:42;20.40;51.20
439;DHT22;206;48.782;9.252;2023-07-02T01:47:08;20.40;52.60
439;DHT22;206;48.782;9.252;2023-07-02T01:49:33;20.40;49.50
439;DHT22;206;48.782;9.252;2023-07-02T01:52:00;20.30;52.20
439;DHT22;206;48.782;9.252;2023-07-02T01:54:26;20.30;52.80
439;DHT22;206;48.782;9.252;2023-07-02T01:56:53;20.30;50.20
439;DHT22;206;48.782;9.252;2023-07-02T01:59:19;20.20;52.70
439;DHT22;206;48.782;9.252;2023-07-02T02:01:44;20.20;52.80
439;DHT22;206;48.782;9.252;2023-07-02T02:04:11;20.10;52.60
439;DHT22;206;48.782;9.252;2023-07-02T02:06:37;20.10;53.00
439;DHT22;206;48.782;9.252;2023-07-02T02:09:03;20.20;53.80
439;DHT22;206;48.782;9.252;2023-07-02T02:11:30;20.10;53.70
439;DHT22;206;48.782;9.252;2023-07-02T02:13:56;20.10;54.00
439;DHT22;206;48.782;9.252;2023-07-02T02:16:22;20.20;54.70
439;DHT22;206;48.782;9.252;2023-07-02T02:18:47;20.20;54.30
439;DHT22;206;48.782;9.252;2023-07-02T02:21:17;20.20;54.30
439;DHT22;206;48.782;9.252;2023-07-02T02:23:43;20.20;52.70
439;DHT22;206;48.782;9.252;2023-07-02T02:26:08;20.30;53.50
439;DHT22;206;48.782;9.252;2023-07-02T02:28:34;20.30;52.10
439;DHT22;206;48.782;9.252;2023-07-02T02:30:59;20.30;52.90
439;DHT22;206;48.782;9.252;2023-07-02T02:33:25;20.30;52.80
439;DHT22;206;48.782;9.252;2023-07-02T02:35:50;20.30;51.80
439;DHT22;206;48.782;9.252;2023-07-02T02:38:16;20.30;51.50
439;DHT22;206;48.782;9.252;2023-07-02T02:40:42;20.30;52.20
439;DHT22;206;48.782;9.252;2023-07-02T02:43:07;20.30;48.60
439;DHT22;206;48.782;9.252;2023-07-02T02:45:33;20.40;50.20
439;DHT22;206;48.782;9.252;2023-07-02T02:47:58;20.40;51.30
439;DHT22;206;48.782;9.252;2023-07-02T02:50:24;20.40;52.00
439;DHT22;206;48.782;9.252;2023-07-02T02:52:49;20.40;51.00
439;DHT22;206;48.782;9.252;2023-07-02T02:55:15;20.40;50.80
439;DHT22;206;48.782;9.252;2023-07-02T02:57:41;20.30;50.60
439;DHT22;206;48.782;9.252;2023-07-02T03:00:08;20.40;50.80
439;DHT22;206;48.782;9.252;2023-07-02T03:02:34;20.30;51.80
439;DHT22;206;48.782;9.252;2023-07-02T03:05:01;20.20;51.60
439;DHT22;206;48.782;9.252;2023-07-02T03:07:31;20.30;50.30
439;DHT22;206;48.782;9.252;2023-07-02T03:09:57;20.40;49.80
439;DHT22;206;48.782;9.252;2023-07-02T03:12:22;20.40;49.80
439;DHT22;206;48.782;9.252;2023-07-02T03:14:48;20.40;49.80
439;DHT22;206;48.782;9.252;2023-07-02T03:17:18;20.40;46.80
439;DHT22;206;48.782;9.252;2023-07-02T03:19:44;20.40;45.70
439;DHT22;206;48.782;9.252;2023-07-02T03:22:10;20.40;46.50
439;DHT22;206;48.782;9.252;2023-07-02T03:24:35;20.40;46.30
439;DHT22;206;48.782;9.252;2023-07-02T03:27:01;20.40;46.10
439;DHT22;206;48.782;9.252;2023-07-02T03:29:27;20.40;45.80
439;DHT22;206;48.782;9.252;2023-07-02T03:31:52;20.50;45.90
439;DHT22;206;48.782;9.252;2023-07-02T03:34:18;20.50;46.40
439;DHT22;206;48.782;9.252;2023-07-02T03:36:43;20.40;48.00
439;DHT22;206;48.782;9.252;2023-07-02T03:39:10;20.30;50.10
439;DHT22;206;48.782;9.252;2023-07-02T03:41:35;20.20;51.60
439;DHT22;206;48.782;9.252;2023-07-02T03:44:01;20.00;52.60
439;DHT22;206;48.782;9.252;2023-07-02T03:46:27;20.00;53.30
439;DHT22;206;48.782;9.252;2023-07-02T03:48:52;20.00;53.50
439;DHT22;206;48.782;9.252;2023-07-02T03:51:18;20.00;53.30
439;DHT22;206;48.782;9.252;2023-07-02T03:53:43;19.90;54.20
439;DHT22;206;48.782;9.252;2023-07-02T03:56:09;19.90;55.00
439;DHT22;206;48.782;9.252;2023-07-02T03:58:35;19.80;55.70
439;DHT22;206;48.782;9.252;2023-07-02T04:01:01;19.80;56.20
439;DHT22;206;48.782;9.252;2023-07-02T04:03:26;19.90;56.20
439;DHT22;206;48.782;9.252;2023-07-02T04:05:52;19.90;57.10
439;DHT22;206;48.782;9.252;2023-07-02T04:08:18;19.70;56.70
439;DHT22;206;48.782;9.252;2023-07-02T04:10:46;19.70;56.50
439;DHT22;206;48.782;9.252;2023-07-02T04:13:11;19.70;57.10
439;DHT22;206;48.782;9.252;2023-07-02T04:15:37;19.70;58.40
439;DHT22;206;48.782;9.252;2023-07-02T04:18:03;19.60;57.00
439;DHT22;206;48.782;9.252;2023-07-02T04:20:28;19.30;55.50
439;DHT22;206;48.782;9.252;2023-07-02T04:22:54;19.20;57.80
439;DHT22;206;48.782;9.252;2023-07-02T04:25:20;19.10;58.80
439;DHT22;206;48.782;9.252;2023-07-02T04:27:45;19.20;57.70
439;DHT22;206;48.782;9.252;2023-07-02T04:30:11;19.20;57.40
439;DHT22;206;48.782;9.252;2023-07-02T04:32:38;19.20;56.50
439;DHT22;206;48.782;9.252;2023-07-02T04:35:07;19.20;55.00
439;DHT22;206;48.782;9.252;2023-07-02T04:37:33;19.30;54.40
439;DHT22;206;48.782;9.252;2023-07-02T04:39:59;19.40;53.30
439;DHT22;206;48.782;9.252;2023-07-02T04:42:26;19.50;52.10
439;DHT22;206;48.782;9.252;2023-07-02T04:44:57;19.50;50.90
439;DHT22;206;48.782;9.252;2023-07-02T04:47:28;19.50;50.20
439;DHT22;206;48.782;9.252;2023-07-02T04:49:53;19.50;48.80
439;DHT22;206;48.782;9.252;2023-07-02T04:52:19;19.60;46.80
439;DHT22;206;48.782;9.252;2023-07-02T04:54:45;19.60;48.30
439;DHT22;206;48.782;9.252;2023-07-02T04:57:10;19.60;49.30
439;DHT22;206;48.782;9.252;2023-07-02T04:59:36;19.60;47.30
439;DHT22;206;48.782;9.252;2023-07-02T05:02:01;19.50;49.20
439;DHT22;206;48.782;9.252;2023-07-02T05:04:27;19.50;49.60
439;DHT22;206;48.782;9.252;2023-07-02T05:06:53;19.60;48.80
439;DHT22;206;48.782;9.252;2023-07-02T05:09:18;19.60;48.50
439;DHT22;206;48.782;9.252;2023-07-02T05:11:44;19.60;48.30
439;DHT22;206;48.782;9.252;2023-07-02T05:14:10;19.60;47.30
439;DHT22;206;48.782;9.252;2023-07-02T05:16:35;19.60;47.90
439;DHT22;206;48.782;9.252;2023-07-02T05:19:01;19.70;47.40
439;DHT22;206;48.782;9.252;2023-07-02T05:21:26;19.80;46.70
439;DHT22;206;48.782;9.252;2023-07-02T05:23:52;19.80;46.10
439;DHT22;206;48.782;9.252;2023-07-02T05:26:17;19.90;46.20
439;DHT22;206;48.782;9.252;2023-07-02T05:28:43;19.90;46.00
439;DHT22;206;48.782;9.252;2023-07-02T05:31:09;20.00;45.60
439;DHT22;206;48.782;9.252;2023-07-02T05:33:35;20.00;44.80
439;DHT22;206;48.782;9.252;2023-07-02T05:36:01;19.90;45.50
439;DHT22;206;48.782;9.252;2023-07-02T05:38:26;20.00;44.80
439;DHT22;206;48.782;9.252;2023-07-02T05:40:52;20.00;44.30
439;DHT22;206;48.782;9.252;2023-07-02T05:43:18;20.10;44.00
439;DHT22;206;48.782;9.252;2023-07-02T05:45:43;20.10;43.10
439;DHT22;206;48.782;9.252;2023-07-02T05:48:09;20.10;42.70
439;DHT22;206;48.782;9.252;2023-07-02T05:50:35;20.10;42.70
439;DHT22;206;48.782;9.252;2023-07-02T05:53:00;20.20;42.90
439;DHT22;206;48.782;9.252;2023-07-02T05:55:26;20.20;42.90
439;DHT22;206;48.782;9.252;2023-07-02T05:57:51;20.30;42.40
439;DHT22;206;48.782;9.252;2023-07-02T06:00:17;20.30;41.40
439;DHT22;206;48.782;9.252;2023-07-02T06:02:45;20.40;41.10
439;DHT22;206;48.782;9.252;2023-07-02T06:05:10;20.40;39.90
439;DHT22;206;48.782;9.252;2023-07-02T06:07:36;20.60;39.90
439;DHT22;206;48.782;9.252;2023-07-02T06:10:02;20.80;37.60
439;DHT22;206;48.782;9.252;2023-07-02T06:12:28;20.90;36.50
439;DHT22;206;48.782;9.252;2023-07-02T06:14:53;21.00;37.00
439;DHT22;206;48.782;9.252;2023-07-02T06:17:19;21.00;36.00
439;DHT22;206;48.782;9.252;2023-07-02T06:19:46;21.10;35.70
439;DHT22;206;48.782;9.252;2023-07-02T06:22:12;21.20;34.80
439;DHT22;206;48.782;9.252;2023-07-02T06:24:37;21.30;33.50
439;DHT22;206;48.782;9.252;2023-07-02T06:27:03;21.20;34.00
439;DHT22;206;48.782;9.252;2023-07-02T06:29:29;21.30;33.80
439;DHT22;206;48.782;9.252;2023-07-02T06:31:54;21.30;33.90
439;DHT22;206;48.782;9.252;2023-07-02T06:34:20;21.30;33.60
439;DHT22;206;48.782;9.252;2023-07-02T06:36:46;21.40;32.40
439;DHT22;206;48.782;9.252;2023-07-02T06:39:11;21.40;31.50
439;DHT22;206;48.782;9.252;2023-07-02T06:41:37;21.50;31.60
439;DHT22;206;48.782;9.252;2023-07-02T06:44:03;21.50;29.90
439;DHT22;206;48.782;9.252;2023-07-02T06:46:29;21.60;29.90
439;DHT22;206;48.782;9.252;2023-07-02T06:48:55;21.70;29.50
439;DHT22;206;48.782;9.252;2023-07-02T06:51:21;21.80;29.70
439;DHT22;206;48.782;9.252;2023-07-02T06:53:47;21.80;29.30
439;DHT22;206;48.782;9.252;2023-07-02T06:56:13;22.00;29.20
439;DHT22;206;48.782;9.252;2023-07-02T06:58:44;22.00;28.30
439;DHT22;206;48.782;9.252;2023-07-02T07:01:10;22.00;28.00
439;DHT22;206;48.782;9.252;2023-07-02T07:03:35;22.00;27.70
439;DHT22;206;48.782;9.252;2023-07-02T07:06:01;22.00;27.50
439;DHT22;206;48.782;9.252;2023-07-02T07:08:27;22.00;27.70
439;DHT22;206;48.782;9.252;2023-07-02T07:10:53;22.10;28.00
439;DHT22;206;48.782;9.252;2023-07-02T07:13:19;22.10;27.10
439;DHT22;206;48.782;9.252;2023-07-02T07:15:44;22.00;27.00
439;DHT22;206;48.782;9.252;2023-07-02T07:18:10;22.00;26.70
439;DHT22;206;48.782;9.252;2023-07-02T07:20:36;22.00;27.50
439;DHT22;206;48.782;9.252;2023-07-02T07:23:02;21.80;26.80
439;DHT22;206;48.782;9.252;2023-07-02T07:25:28;21.70;27.80
439;DHT22;206;48.782;9.252;2023-07-02T07:27:54;21.70;28.00
439;DHT22;206;48.782;9.252;2023-07-02T07:30:20;21.70;27.60
439;DHT22;206;48.782;9.252;2023-07-02T07:32:51;21.70;27.90
439;DHT22;206;48.782;9.252;2023-07-02T07:35:21;21.80;28.40
439;DHT22;206;48.782;9.252;2023-07-02T07:37:47;21.90;27.30
439;DHT22;206;48.782;9.252;2023-07-02T07:40:13;21.90;27.80
439;DHT22;206;48.782;9.252;2023-07-02T07:42:39;22.00;27.30
439;DHT22;206;48.782;9.252;2023-07-02T07:45:05;21.80;27.70
439;DHT22;206;48.782;9.252;2023-07-02T07:47:31;21.90;27.90
439;DHT22;206;48.782;9.252;2023-07-02T07:49:57;21.90;26.20
439;DHT22;206;48.782;9.252;2023-07-02T07:52:22;22.00;25.20
439;DHT22;206;48.782;9.252;2023-07-02T07:54:48;22.10;25.30
439;DHT22;206;48.782;9.252;2023-07-02T07:57:14;22.10;25.30
439;DHT22;206;48.782;9.252;2023-07-02T07:59:40;22.20;25.30
439;DHT22;206;48.782;9.252;2023-07-02T08:02:05;22.40;24.10
439;DHT22;206;48.782;9.252;2023-07-02T08:04:31;22.40;23.90
439;DHT22;206;48.782;9.252;2023-07-02T08:06:57;22.40;23.20
439;DHT22;206;48.782;9.252;2023-07-02T08:09:23;22.40;24.10
439;DHT22;206;48.782;9.252;2023-07-02T08:11:49;22.40;23.70
439;DHT22;206;48.782;9.252;2023-07-02T08:14:16;22.50;22.40
439;DHT22;206;48.782;9.252;2023-07-02T08:16:42;22.40;22.90
439;DHT22;206;48.782;9.252;2023-07-02T08:19:07;22.50;23.60
439;DHT22;206;48.782;9.252;2023-07-02T08:21:33;22.50;22.80
439;DHT22;206;48.782;9.252;2023-07-02T08:23:58;22.60;23.20
439;DHT22;206;48.782;9.252;2023-07-02T08:26:24;22.70;22.20
439;DHT22;206;48.782;9.252;2023-07-02T08:28:50;22.70;21.50
439;DHT22;206;48.782;9.252;2023-07-02T08:31:16;22.60;21.60
439;DHT22;206;48.782;9.252;2023-07-02T08:33:41;22.50;22.70
439;DHT22;206;48.782;9.252;2023-07-02T08:36:07;22.50;23.00
439;DHT22;206;48.782;9.252;2023-07-02T08:38:33;22.60;22.40
439;DHT22;206;48.782;9.252;2023-07-02T08:40:58;22.70;21.90
439;DHT22;206;48.782;9.252;2023-07-02T08:43:26;22.80;21.60
439;DHT22;206;48.782;9.252;2023-07-02T08:45:53;22.90;20.30
439;DHT22;206;48.782;9.252;2023-07-02T08:48:19;22.90;21.80
439;DHT22;206;48.782;9.252;2023-07-02T08:50:49;23.00;20.60
439;DHT22;206;48.782;9.252;2023-07-02T08:53:15;23.10;20.90
439;DHT22;206;48.782;9.252;2023-07-02T08:55:41;23.30;20.20
439;DHT22;206;48.782;9.252;2023-07-02T08:58:07;23.50;19.80
439;DHT22;206;48.782;9.252;2023-07-02T09:00:32;23.50;20.10
439;DHT22;206;48.782;9.252;2023-07-02T09:03:31;23.60;19.80
439;DHT22;206;48.782;9.252;2023-07-02T09:05:57;23.70;19.00
439;DHT22;206;48.782;9.252;2023-07-02T09:08:26;23.80;19.00
439;DHT22;206;48.782;9.252;2023-07-02T09:10:53;23.80;18.00
439;DHT22;206;48.782;9.252;2023-07-02T09:13:19;23.90;18.10
439;DHT22;206;48.782;9.252;2023-07-02T09:15:44;24.00;17.60
439;DHT22;206;48.782;9.252;2023-07-02T09:18:21;24.10;17.30
439;DHT22;206;48.782;9.252;2023-07-02T09:20:56;24.20;17.80
439;DHT22;206;48.782;9.252;2023-07-02T09:23:22;24.20;17.50
439;DHT22;206;48.782;9.252;2023-07-02T09:25:47;24.30;17.50
439;DHT22;206;48.782;9.252;2023-07-02T09:28:21;24.30;16.40
439;DHT22;206;48.782;9.252;2023-07-02T09:30:54;24.40;16.70
439;DHT22;206;48.782;9.252;2023-07-02T09:33:24;24.50;16.00
439;DHT22;206;48.782;9.252;2023-07-02T09:35:49;24.40;15.30
439;DHT22;206;48.782;9.252;2023-07-02T09:38:16;24.30;15.30
439;DHT22;206;48.782;9.252;2023-07-02T09:40:49;24.20;15.20
439;DHT22;206;48.782;9.252;2023-07-02T09:43:16;24.20;15.50
439;DHT22;206;48.782;9.252;2023-07-02T09:45:46;24.20;15.60
439;DHT22;206;48.782;9.252;2023-07-02T09:48:16;24.20;15.50
439;DHT22;206;48.782;9.252;2023-07-02T09:50:44;24.20;15.60
439;DHT22;206;48.782;9.252;2023-07-02T09:53:10;24.30;15.70
439;DHT22;206;48.782;9.252;2023-07-02T09:55:41;24.40;15.30
439;DHT22;206;48.782;9.252;2023-07-02T09:58:07;24.50;15.10
439;DHT22;206;48.782;9.252;2023-07-02T10:00:33;24.60;14.50
439;DHT22;206;48.782;9.252;2023-07-02T10:02:59;24.70;14.70
439;DHT22;206;48.782;9.252;2023-07-02T10:05:33;24.60;14.40
439;DHT22;206;48.782;9.252;2023-07-02T10:08:12;24.60;14.60
439;DHT22;206;48.782;9.252;2023-07-02T10:10:39;24.60;15.20
439;DHT22;206;48.782;9.252;2023-07-02T10:13:04;24.70;15.00
439;DHT22;206;48.782;9.252;2023-07-02T10:15:31;24.90;14.90
439;DHT22;206;48.782;9.252;2023-07-02T10:18:01;24.70;14.60
439;DHT22;206;48.782;9.252;2023-07-02T10:20:33;24.50;14.70
439;DHT22;206;48.782;9.252;2023-07-02T10:23:02;24.50;15.10
439;DHT22;206;48.782;9.252;2023-07-02T10:25:32;24.50;15.40
439;DHT22;206;48.782;9.252;2023-07-02T10:28:00;24.50;15.00
439;DHT22;206;48.782;9.252;2023-07-02T10:30:35;24.30;15.40
439;DHT22;206;48.782;9.252;2023-07-02T10:33:16;24.40;15.40
439;DHT22;206;48.782;9.252;2023-07-02T10:35:44;24.60;14.30
439;DHT22;206;48.782;9.252;2023-07-02T10:38:23;24.70;14.30
439;DHT22;206;48.782;9.252;2023-07-02T10:40:59;24.70;15.00
439;DHT22;206;48.782;9.252;2023-07-02T10:43:30;24.60;15.10
439;DHT22;206;48.782;9.252;2023-07-02T10:45:56;24.40;15.40
439;DHT22;206;48.782;9.252;2023-07-02T10:48:22;24.50;15.80
439;DHT22;206;48.782;9.252;2023-07-02T10:50:48;24.50;15.20
439;DHT22;206;48.782;9.252;2023-07-02T10:53:18;24.60;15.40
439;DHT22;206;48.782;9.252;2023-07-02T10:55:44;24.80;15.10
439;DHT22;206;48.782;9.252;2023-07-02T10:58:11;24.90;14.80
439;DHT22;206;48.782;9.252;2023-07-02T11:00:47;25.00;14.60
439;DHT22;206;48.782;9.252;2023-07-02T11:03:21;25.00;14.80
439;DHT22;206;48.782;9.252;2023-07-02T11:05:47;24.90;14.80
439;DHT22;206;48.782;9.252;2023-07-02T11:08:13;24.90;15.00
439;DHT22;206;48.782;9.252;2023-07-02T11:10:39;25.00;14.90
439;DHT22;206;48.782;9.252;2023-07-02T11:13:16;25.10;14.60
439;DHT22;206;48.782;9.252;2023-07-02T11:15:42;25.10;14.10
439;DHT22;206;48.782;9.252;2023-07-02T11:18:15;25.20;13.10
439;DHT22;206;48.782;9.252;2023-07-02T11:20:46;25.30;12.80
439;DHT22;206;48.782;9.252;2023-07-02T11:23:22;25.30;12.60
439;DHT22;206;48.782;9.252;2023-07-02T11:25:58;25.40;12.70
439;DHT22;206;48.782;9.252;2023-07-02T11:28:25;25.50;12.70
439;DHT22;206;48.782;9.252;2023-07-02T11:30:51;25.60;11.80
439;DHT22;206;48.782;9.252;2023-07-02T11:33:17;25.70;12.00
439;DHT22;206;48.782;9.252;2023-07-02T11:35:43;25.70;11.80
439;DHT22;206;48.782;9.252;2023-07-02T11:38:09;25.80;11.70
439;DHT22;206;48.782;9.252;2023-07-02T11:40:38;25.80;11.60
439;DHT22;206;48.782;9.252;2023-07-02T11:43:04;25.80;11.90
439;DHT22;206;48.782;9.252;2023-07-02T11:45:31;25.90;10.60
439;DHT22;206;48.782;9.252;2023-07-02T11:47:57;25.90;10.60
439;DHT22;206;48.782;9.252;2023-07-02T11:50:22;26.00;10.70
439;DHT22;206;48.782;9.252;2023-07-02T11:52:48;26.10;10.70
439;DHT22;206;48.782;9.252;2023-07-02T11:55:13;26.30;10.20
439;DHT22;206;48.782;9.252;2023-07-02T11:57:39;26.30;10.00
439;DHT22;206;48.782;9.252;2023-07-02T12:00:05;26.20;9.30
439;DHT22;206;48.782;9.252;2023-07-02T12:02:32;26.10;10.40
439;DHT22;206;48.782;9.252;2023-07-02T12:04:57;26.10;9.60
439;DHT22;206;48.782;9.252;2023-07-02T12:07:23;25.80;9.80
439;DHT22;206;48.782;9.252;2023-07-02T12:09:50;25.70;10.50
439;DHT22;206;48.782;9.252;2023-07-02T12:12:16;25.70;9.90
439;DHT22;206;48.782;9.252;2023-07-02T12:14:41;25.80;9.60
439;DHT22;206;48.782;9.252;2023-07-02T12:17:09;25.80;10.00
439;DHT22;206;48.782;9.252;2023-07-02T12:19:38;25.90;9.50
439;DHT22;206;48.782;9.252;2023-07-02T12:22:04;26.00;9.20
439;DHT22;206;48.782;9.252;2023-07-02T12:24:30;26.20;8.10
439;DHT22;206;48.782;9.252;2023-07-02T12:26:55;26.30;8.00
439;DHT22;206;48.782;9.252;2023-07-02T12:29:21;26.40;7.30
439;DHT22;206;48.782;9.252;2023-07-02T12:31:46;26.50;7.80
439;DHT22;206;48.782;9.252;2023-07-02T12:34:12;26.50;8.00
439;DHT22;206;48.782;9.252;2023-07-02T12:36:37;26.50;7.50
439;DHT22;206;48.782;9.252;2023-07-02T12:39:03;26.50;7.70
439;DHT22;206;48.782;9.252;2023-07-02T12:41:28;26.60;8.00
439;DHT22;206;48.782;9.252;2023-07-02T12:43:56;26.60;7.50
439;DHT22;206;48.782;9.252;2023-07-02T12:46:21;26.50;7.60
439;DHT22;206;48.782;9.252;2023-07-02T12:48:47;26.50;7.50
439;DHT22;206;48.782;9.252;2023-07-02T12:51:13;26.60;7.40
439;DHT22;206;48.782;9.252;2023-07-02T12:53:38;26.60;7.30
439;DHT22;206;48.782;9.252;2023-07-02T12:56:04;26.70;6.90
439;DHT22;206;48.782;9.252;2023-07-02T12:58:30;26.70;6.70
439;DHT22;206;48.782;9.252;2023-07-02T13:00:55;26.80;6.50
439;DHT22;206;48.782;9.252;2023-07-02T13:03:21;26.80;6.60
439;DHT22;206;48.782;9.252;2023-07-02T13:05:49;26.90;6.40
439;DHT22;206;48.782;9.252;2023-07-02T13:08:14;26.80;6.40
439;DHT22;206;48.782;9.252;2023-07-02T13:10:40;26.70;6.40
439;DHT22;206;48.782;9.252;2023-07-02T13:13:06;26.80;6.50
439;DHT22;206;48.782;9.252;2023-07-02T13:15:31;26.80;6.10
439;DHT22;206;48.782;9.252;2023-07-02T13:17:57;26.90;6.10
439;DHT22;206;48.782;9.252;2023-07-02T13:20:23;27.00;6.20
439;DHT22;206;48.782;9.252;2023-07-02T13:22:48;27.00;6.00
439;DHT22;206;48.782;9.252;2023-07-02T13:25:14;27.00;5.90
439;DHT22;206;48.782;9.252;2023-07-02T13:27:40;27.00;5.90
439;DHT22;206;48.782;9.252;2023-07-02T13:30:06;27.00;5.70
439;DHT22;206;48.782;9.252;2023-07-02T13:32:32;27.00;5.50
439;DHT22;206;48.782;9.252;2023-07-02T13:34:57;27.00;5.20
439;DHT22;206;48.782;9.252;2023-07-02T13:37:23;27.10;5.50
439;DHT22;206;48.782;9.252;2023-07-02T13:39:49;27.00;5.30
439;DHT22;206;48.782;9.252;2023-07-02T13:42:15;27.00;5.70
439;DHT22;206;48.782;9.252;2023-07-02T13:44:41;27.00;5.40
439;DHT22;206;48.782;9.252;2023-07-02T13:47:08;27.10;5.60
439;DHT22;206;48.782;9.252;2023-07-02T13:49:33;27.20;5.60
439;DHT22;206;48.782;9.252;2023-07-02T13:51:59;27.30;5.00
439;DHT22;206;48.782;9.252;2023-07-02T13:54:25;27.30;4.90
439;DHT22;206;48.782;9.252;2023-07-02T13:56:52;27.20;5.40
439;DHT22;206;48.782;9.252;2023-07-02T13:59:19;27.20;5.40
439;DHT22;206;48.782;9.252;2023-07-02T14:01:45;27.30;5.10
439;DHT22;206;48.782;9.252;2023-07-02T14:04:12;27.30;5.00
439;DHT22;206;48.782;9.252;2023-07-02T14:06:37;27.10;5.20
439;DHT22;206;48.782;9.252;2023-07-02T14:09:04;27.10;5.00
439;DHT22;206;48.782;9.252;2023-07-02T14:11:31;27.10;5.10
439;DHT22;206;48.782;9.252;2023-07-02T14:13:57;27.10;4.70
439;DHT22;206;48.782;9.252;2023-07-02T14:16:22;27.20;4.80
439;DHT22;206;48.782;9.252;2023-07-02T14:18:49;27.20;4.60
439;DHT22;206;48.782;9.252;2023-07-02T14:21:15;27.30;4.50
439;DHT22;206;48.782;9.252;2023-07-02T14:23:43;27.40;4.60
439;DHT22;206;48.782;9.252;2023-07-02T14:26:08;27.50;4.40
439;DHT22;206;48.782;9.252;2023-07-02T14:28:34;27.50;4.40
439;DHT22;206;48.782;9.252;2023-07-02T14:31:01;27.50;4.50
439;DHT22;206;48.782;9.252;2023-07-02T14:33:29;27.40;4.60
439;DHT22;206;48.782;9.252;2023-07-02T14:35:55;27.30;5.00
439;DHT22;206;48.782;9.252;2023-07-02T14:38:20;27.40;5.20
439;DHT22;206;48.782;9.252;2023-07-02T14:40:48;27.40;5.10
439;DHT22;206;48.782;9.252;2023-07-02T14:43:13;27.30;5.00
439;DHT22;206;48.782;9.252;2023-07-02T14:45:50;27.30;5.10
439;DHT22;206;48.782;9.252;2023-07-02T14:48:16;27.30;4.70
439;DHT22;206;48.782;9.252;2023-07-02T14:50:49;27.30;4.80
439;DHT22;206;48.782;9.252;2023-07-02T14:53:15;27.00;5.20
439;DHT22;206;48.782;9.252;2023-07-02T14:55:41;27.10;5.30
439;DHT22;206;48.782;9.252;2023-07-02T14:58:07;27.10;5.20
439;DHT22;206;48.782;9.252;2023-07-02T15:00:33;27.20;5.30
439;DHT22;206;48.782;9.252;2023-07-02T15:02:59;27.30;5.20
439;DHT22;206;48.782;9.252;2023-07-02T15:05:25;27.30;5.00
439;DHT22;206;48.782;9.252;2023-07-02T15:07:50;27.40;4.60
439;DHT22;206;48.782;9.252;2023-07-02T15:10:17;27.50;4.50
439;DHT22;206;48.782;9.252;2023-07-02T15:12:43;27.60;4.30
439;DHT22;206;48.782;9.252;2023-07-02T15:15:08;27.70;4.30
439;DHT22;206;48.782;9.252;2023-07-02T15:17:34;27.70;4.40
439;DHT22;206;48.782;9.252;2023-07-02T15:20:00;27.70;4.30
439;DHT22;206;48.782;9.252;2023-07-02T15:22:26;27.70;4.70
439;DHT22;206;48.782;9.252;2023-07-02T15:24:51;27.70;4.90
439;DHT22;206;48.782;9.252;2023-07-02T15:27:17;27.70;4.80
439;DHT22;206;48.782;9.252;2023-07-02T15:29:42;27.80;4.50
439;DHT22;206;48.782;9.252;2023-07-02T15:32:08;27.90;5.10
439;DHT22;206;48.782;9.252;2023-07-02T15:34:33;27.90;4.60
439;DHT22;206;48.782;9.252;2023-07-02T15:36:59;27.90;4.60
439;DHT22;206;48.782;9.252;2023-07-02T15:39:24;27.90;4.10
439;DHT22;206;48.782;9.252;2023-07-02T15:41:57;27.90;4.40
439;DHT22;206;48.782;9.252;2023-07-02T15:44:23;27.90;4.30
439;DHT22;206;48.782;9.252;2023-07-02T15:46:48;27.90;4.60
439;DHT22;206;48.782;9.252;2023-07-02T15:49:14;28.00;4.40
439;DHT22;206;48.782;9.252;2023-07-02T15:51:40;27.90;4.50
439;DHT22;206;48.782;9.252;2023-07-02T15:54:07;27.90;4.80
439;DHT22;206;48.782;9.252;2023-07-02T15:56:34;27.90;4.80
439;DHT22;206;48.782;9.252;2023-07-02T15:59:01;27.90;4.80
439;DHT22;206;48.782;9.252;2023-07-02T16:01:27;27.90;4.70
439;DHT22;206;48.782;9.252;2023-07-02T16:03:54;28.00;4.30
439;DHT22;206;48.782;9.252;2023-07-02T16:06:20;27.90;4.40
439;DHT22;206;48.782;9.252;2023-07-02T16:08:45;27.90;4.30
439;DHT22;206;48.782;9.252;2023-07-02T16:11:12;27.80;4.20
439;DHT22;206;48.782;9.252;2023-07-02T16:13:43;27.80;4.50
439;DHT22;206;48.782;9.252;2023-07-02T16:16:09;27.80;4.60
439;DHT22;206;48.782;9.252;2023-07-02T16:18:35;27.80;5.00
439;DHT22;206;48.782;9.252;2023-07-02T16:21:03;27.80;4.70
439;DHT22;206;48.782;9.252;2023-07-02T16:23:29;27.70;4.50
439;DHT22;206;48.782;9.252;2023-07-02T16:26:00;27.70;4.50
439;DHT22;206;48.782;9.252;2023-07-02T16:28:30;27.60;4.50
439;DHT22;206;48.782;9.252;2023-07-02T16:30:56;27.50;4.70
439;DHT22;206;48.782;9.252;2023-07-02T16:33:22;27.40;4.80
439;DHT22;206;48.782;9.252;2023-07-02T16:35:48;27.50;5.10